createdAt,value
2023-04-16T00:00:03.999Z,4.40
2023-04-16T00:02:58.171Z,5.97
2023-04-16T00:05:46.435Z,4.63
2023-04-16T00:08:36.087Z,5.70
2023-04-16T00:11:23.893Z,4.90
2023-04-16T00:14:12.554Z,5.93
2023-04-16T00:17:00.776Z,6.80
2023-04-16T00:19:48.514Z,6.93
2023-04-16T00:22:36.320Z,6.23
2023-04-16T00:25:23.670Z,5.93
2023-04-16T00:28:11.192Z,6.07
2023-04-16T00:31:01.464Z,5.30
2023-04-16T00:33:50.367Z,5.57
2023-04-16T00:36:37.901Z,5.43
2023-04-16T00:39:26.132Z,5.83
2023-04-16T00:42:13.385Z,7.03
2023-04-16T00:45:01.586Z,6.23
2023-04-16T00:47:50.169Z,5.77
2023-04-16T00:50:38.603Z,6.20
2023-04-16T00:53:25.948Z,6.90
2023-04-16T00:56:14.327Z,6.10
2023-04-16T00:59:01.741Z,7.13
2023-04-16T01:01:49.991Z,5.27
2023-04-16T01:04:39.250Z,6.13
2023-04-16T01:07:27.304Z,6.23
2023-04-16T01:10:14.587Z,5.87
2023-04-16T01:13:02.937Z,8.30
2023-04-16T01:15:50.231Z,5.90
2023-04-16T01:18:40.082Z,8.23
2023-04-16T01:21:28.869Z,6.53
2023-04-16T01:24:17.058Z,6.77
2023-04-16T01:27:04.291Z,6.17
2023-04-16T01:29:52.704Z,6.77
2023-04-16T01:32:46.044Z,5.73
2023-04-16T01:35:34.202Z,7.00
2023-04-16T01:38:22.811Z,6.73
2023-04-16T01:41:10.954Z,6.37
2023-04-16T01:43:58.360Z,6.13
2023-04-16T01:46:46.804Z,5.53
2023-04-16T01:49:34.771Z,6.07
2023-04-16T01:52:23.027Z,5.83
2023-04-16T01:55:11.733Z,9.43
2023-04-16T01:57:59.829Z,4.97
2023-04-16T02:00:50.527Z,5.73
2023-04-16T02:03:38.878Z,5.77
2023-04-16T02:06:27.388Z,9.37
2023-04-16T02:09:15.618Z,5.90
2023-04-16T02:12:04.830Z,6.20
2023-04-16T02:14:52.831Z,7.67
2023-04-16T02:17:40.990Z,4.87
2023-04-16T02:20:30.901Z,6.37
2023-04-16T02:23:20.679Z,5.50
2023-04-16T02:26:08.327Z,6.20
2023-04-16T02:28:57.841Z,6.10
2023-04-16T02:31:52.180Z,8.37
2023-04-16T02:34:40.656Z,6.47
2023-04-16T02:37:28.034Z,6.77
2023-04-16T02:40:16.394Z,6.10
2023-04-16T02:43:04.150Z,6.07
2023-04-16T02:45:54.846Z,5.33
2023-04-16T02:48:42.024Z,5.60
2023-04-16T02:51:30.114Z,5.27
2023-04-16T02:54:17.344Z,5.13
2023-04-16T02:57:06.637Z,4.83
2023-04-16T02:59:53.994Z,4.00
2023-04-16T03:02:43.843Z,4.60
2023-04-16T03:05:31.369Z,4.20
2023-04-16T03:08:19.596Z,4.00
2023-04-16T03:11:07.504Z,5.07
2023-04-16T03:13:55.891Z,4.83
2023-04-16T03:16:43.047Z,5.03
2023-04-16T03:19:32.511Z,3.30
2023-04-16T03:22:19.811Z,4.40
2023-04-16T03:25:08.758Z,5.30
2023-04-16T03:27:56.251Z,4.23
2023-04-16T03:30:50.217Z,3.83
2023-04-16T03:33:37.399Z,3.67
2023-04-16T03:36:29.937Z,4.50
2023-04-16T03:39:17.261Z,4.57
2023-04-16T03:42:05.702Z,4.73
2023-04-16T03:44:54.601Z,4.93
2023-04-16T03:47:43.563Z,5.73
2023-04-16T03:50:31.387Z,3.73
2023-04-16T03:53:21.091Z,5.07
2023-04-16T03:56:09.044Z,4.60
2023-04-16T03:58:57.182Z,4.33
2023-04-16T04:01:44.957Z,6.43
2023-04-16T04:04:32.942Z,5.67
2023-04-16T04:07:20.556Z,5.67
2023-04-16T04:10:11.476Z,4.50
2023-04-16T04:13:02.840Z,5.90
2023-04-16T04:15:51.463Z,4.67
2023-04-16T04:18:38.867Z,4.63
2023-04-16T04:21:27.339Z,4.50
2023-04-16T04:24:15.445Z,5.50
2023-04-16T04:27:04.353Z,6.30
2023-04-16T04:29:53.713Z,5.83
2023-04-16T04:32:42.754Z,5.10
2023-04-16T04:35:30.773Z,5.13
2023-04-16T04:38:20.092Z,6.60
2023-04-16T04:41:08.977Z,5.13
2023-04-16T04:43:59.777Z,5.33
2023-04-16T04:46:48.158Z,6.03
2023-04-16T04:49:35.483Z,5.33
2023-04-16T04:52:24.742Z,5.20
2023-04-16T04:55:14.555Z,4.43
2023-04-16T04:58:02.657Z,6.93
2023-04-16T05:00:52.680Z,5.77
2023-04-16T05:03:39.967Z,5.00
2023-04-16T05:06:29.629Z,4.73
2023-04-16T05:09:17.867Z,4.60
2023-04-16T05:12:05.384Z,4.83
2023-04-16T05:14:53.141Z,4.70
2023-04-16T05:17:41.701Z,4.83
2023-04-16T05:20:29.814Z,6.20
2023-04-16T05:23:18.137Z,4.17
2023-04-16T05:26:05.641Z,4.03
2023-04-16T05:28:53.940Z,3.53
2023-04-16T05:31:41.118Z,3.70
2023-04-16T05:34:31.149Z,4.20
2023-04-16T05:37:18.822Z,3.90
2023-04-16T05:40:07.625Z,3.27
2023-04-16T05:42:55.896Z,4.30
2023-04-16T05:45:43.571Z,3.87
2023-04-16T05:48:31.584Z,3.27
2023-04-16T05:51:22.965Z,3.33
2023-04-16T05:54:10.630Z,2.77
2023-04-16T05:56:57.888Z,3.17
2023-04-16T05:59:46.088Z,2.70
2023-04-16T06:02:34.160Z,2.90
2023-04-16T06:05:22.297Z,2.10
2023-04-16T06:08:11.578Z,1.83
2023-04-16T06:10:59.344Z,2.97
2023-04-16T06:13:46.620Z,2.00
2023-04-16T06:16:34.423Z,1.53
2023-04-16T06:19:21.550Z,1.50
2023-04-16T06:22:08.896Z,1.67
2023-04-16T06:24:57.909Z,1.47
2023-04-16T06:27:45.676Z,1.30
2023-04-16T06:30:33.351Z,1.30
2023-04-16T06:33:21.181Z,0.80
2023-04-16T06:36:08.465Z,1.10
2023-04-16T06:38:56.096Z,1.70
2023-04-16T06:41:44.673Z,1.07
2023-04-16T06:44:32.353Z,1.13
2023-04-16T06:47:19.613Z,1.83
2023-04-16T06:50:07.638Z,1.20
2023-04-16T06:52:55.356Z,1.00
2023-04-16T06:55:43.068Z,1.03
2023-04-16T06:58:31.786Z,0.73
2023-04-16T07:01:19.107Z,0.97
2023-04-16T07:04:07.315Z,0.70
2023-04-16T07:06:54.667Z,0.90
2023-04-16T07:09:42.360Z,0.80
2023-04-16T07:12:29.584Z,1.43
2023-04-16T07:15:18.238Z,0.83
2023-04-16T07:18:05.412Z,0.63
2023-04-16T07:20:53.534Z,1.10
2023-04-16T07:23:40.744Z,0.50
2023-04-16T07:26:28.487Z,0.80
2023-04-16T07:29:15.664Z,0.90
2023-04-16T07:32:05.392Z,0.60
2023-04-16T07:34:52.731Z,0.70
2023-04-16T07:37:40.409Z,1.43
2023-04-16T07:40:27.723Z,0.70
2023-04-16T07:43:16.897Z,0.70
2023-04-16T07:46:04.558Z,0.87
2023-04-16T07:48:53.063Z,0.60
2023-04-16T07:51:41.008Z,0.70
2023-04-16T07:54:29.209Z,0.67
2023-04-16T07:57:17.452Z,1.07
2023-04-16T08:00:05.947Z,0.60
2023-04-16T08:03:00.493Z,1.43
2023-04-16T08:05:49.240Z,0.60
2023-04-16T08:08:37.597Z,0.70
2023-04-16T08:11:24.877Z,0.77
2023-04-16T08:14:13.018Z,2.73
2023-04-16T08:17:00.194Z,1.17
2023-04-16T08:19:48.382Z,0.70
2023-04-16T08:22:37.071Z,0.70
2023-04-16T08:25:25.290Z,0.50
2023-04-16T08:28:12.424Z,1.03
2023-04-16T08:31:00.608Z,1.03
2023-04-16T08:33:47.791Z,0.50
2023-04-16T08:36:35.512Z,0.70
2023-04-16T08:39:24.188Z,0.60
2023-04-16T08:42:18.890Z,0.60
2023-04-16T08:45:08.964Z,0.70
2023-04-16T08:47:57.041Z,0.87
2023-04-16T08:50:46.555Z,0.60
2023-04-16T08:53:41.476Z,0.60
2023-04-16T08:56:32.434Z,0.60
2023-04-16T08:59:20.061Z,0.60
2023-04-16T09:02:07.577Z,0.60
2023-04-16T09:04:55.905Z,0.63
2023-04-16T09:07:44.585Z,0.60
2023-04-16T09:10:31.902Z,0.70
2023-04-16T09:13:22.734Z,0.50
2023-04-16T09:16:10.971Z,0.60
2023-04-16T09:18:58.154Z,0.60
2023-04-16T09:21:47.631Z,0.43
2023-04-16T09:24:35.481Z,0.60
2023-04-16T09:27:25.396Z,0.90
2023-04-16T09:30:23.205Z,0.60
2023-04-16T09:33:16.765Z,0.60
2023-04-16T09:36:06.167Z,0.63
2023-04-16T09:38:56.940Z,0.60
2023-04-16T09:41:48.020Z,0.50
2023-04-16T09:44:36.903Z,0.63
2023-04-16T09:47:27.141Z,0.60
2023-04-16T09:50:18.193Z,0.60
2023-04-16T09:53:06.729Z,0.60
2023-04-16T09:55:56.766Z,0.73
2023-04-16T09:58:45.259Z,0.60
2023-04-16T10:01:32.887Z,0.60
2023-04-16T10:04:22.300Z,0.50
2023-04-16T10:07:09.989Z,0.60
2023-04-16T10:09:57.861Z,0.80
2023-04-16T10:12:45.962Z,0.90
2023-04-16T10:15:33.561Z,1.00
2023-04-16T10:18:21.683Z,0.70
2023-04-16T10:21:15.280Z,0.73
2023-04-16T10:24:03.520Z,0.60
2023-04-16T10:26:52.808Z,0.60
2023-04-16T10:29:41.588Z,0.80
2023-04-16T10:32:31.469Z,0.80
2023-04-16T10:35:20.640Z,0.73
2023-04-16T10:38:27.180Z,0.93
2023-04-16T10:41:14.934Z,0.60
2023-04-16T10:44:06.476Z,0.70
2023-04-16T10:46:55.323Z,0.70
2023-04-16T10:49:43.874Z,1.30
2023-04-16T10:52:31.650Z,1.17
2023-04-16T10:55:20.812Z,2.20
2023-04-16T10:58:30.905Z,0.70
2023-04-16T11:01:18.955Z,1.00
2023-04-16T11:04:30.093Z,0.60
2023-04-16T11:07:19.807Z,1.10
2023-04-16T11:10:13.280Z,0.80
2023-04-16T11:13:02.058Z,0.63
2023-04-16T11:15:49.358Z,0.83
2023-04-16T11:18:37.079Z,1.23
2023-04-16T11:21:32.265Z,1.00
2023-04-16T11:24:19.443Z,0.73
2023-04-16T11:27:06.620Z,0.93
2023-04-16T11:29:59.362Z,0.70
2023-04-16T11:32:46.605Z,0.70
2023-04-16T11:35:33.832Z,1.67
2023-04-16T11:38:21.090Z,0.70
2023-04-16T11:41:09.661Z,0.70
2023-04-16T11:43:57.400Z,1.17
2023-04-16T11:46:46.414Z,0.60
2023-04-16T11:49:34.012Z,0.70
2023-04-16T11:52:28.859Z,1.63
2023-04-16T11:55:16.172Z,1.00
2023-04-16T11:58:11.916Z,0.80
2023-04-16T12:01:00.329Z,1.00
2023-04-16T12:03:49.724Z,0.70
2023-04-16T12:06:37.170Z,1.37
2023-04-16T12:09:26.378Z,1.27
2023-04-16T12:12:26.650Z,0.90
2023-04-16T12:15:14.438Z,0.77
2023-04-16T12:18:08.027Z,3.40
2023-04-16T12:20:57.288Z,0.60
2023-04-16T12:23:44.442Z,0.63
2023-04-16T12:26:41.212Z,1.10
2023-04-16T12:29:28.787Z,0.80
2023-04-16T12:32:23.548Z,0.80
2023-04-16T12:35:11.349Z,0.97
2023-04-16T12:38:01.445Z,0.70
2023-04-16T12:40:48.609Z,0.70
2023-04-16T12:43:37.420Z,0.90
2023-04-16T12:46:24.633Z,0.90
2023-04-16T12:49:12.365Z,0.70
2023-04-16T12:51:59.637Z,0.90
2023-04-16T12:54:48.406Z,0.80
2023-04-16T12:57:36.096Z,1.80
2023-04-16T13:00:23.511Z,0.80
2023-04-16T13:03:11.678Z,1.17
2023-04-16T13:05:58.990Z,0.70
2023-04-16T13:08:46.450Z,0.67
2023-04-16T13:11:35.011Z,0.60
2023-04-16T13:14:22.176Z,1.00
2023-04-16T13:17:09.397Z,0.70
2023-04-16T13:19:57.034Z,0.70
2023-04-16T13:22:44.198Z,0.77
2023-04-16T13:25:32.468Z,0.60
2023-04-16T13:28:21.432Z,0.67
2023-04-16T13:31:09.288Z,0.60
2023-04-16T13:33:56.528Z,0.70
2023-04-16T13:36:43.880Z,0.97
2023-04-16T13:39:31.043Z,2.10
2023-04-16T13:42:18.850Z,0.80
2023-04-16T13:45:09.413Z,0.60
2023-04-16T13:47:57.091Z,0.70
2023-04-16T13:50:44.325Z,0.97
2023-04-16T13:53:31.554Z,0.70
2023-04-16T13:56:18.665Z,0.73
2023-04-16T13:59:06.760Z,0.80
2023-04-16T14:01:55.455Z,0.83
2023-04-16T14:04:42.679Z,1.00
2023-04-16T14:07:29.852Z,1.03
2023-04-16T14:10:17.733Z,0.70
2023-04-16T14:13:04.926Z,1.20
2023-04-16T14:15:54.081Z,0.73
2023-04-16T14:18:42.546Z,0.70
2023-04-16T14:21:31.302Z,1.10
2023-04-16T14:24:18.539Z,0.93
2023-04-16T14:27:05.864Z,2.30
2023-04-16T14:29:53.002Z,1.20
2023-04-16T14:32:41.371Z,0.80
2023-04-16T14:35:29.855Z,0.90
2023-04-16T14:38:17.158Z,0.90
2023-04-16T14:41:04.497Z,0.70
2023-04-16T14:43:51.655Z,1.10
2023-04-16T14:46:40.978Z,0.87
2023-04-16T14:49:28.306Z,0.70
2023-04-16T14:52:17.957Z,1.10
2023-04-16T14:55:07.315Z,1.07
2023-04-16T14:57:54.659Z,0.63
2023-04-16T15:00:42.784Z,2.23
2023-04-16T15:03:31.223Z,0.80
2023-04-16T15:06:19.063Z,1.20
2023-04-16T15:09:08.158Z,1.23
2023-04-16T15:11:56.867Z,0.97
2023-04-16T15:14:44.952Z,1.03
2023-04-16T15:17:32.327Z,1.87
2023-04-16T15:20:20.486Z,0.87
2023-04-16T15:23:08.229Z,1.83
2023-04-16T15:25:56.759Z,0.70
2023-04-16T15:28:44.314Z,2.07
2023-04-16T15:31:32.081Z,1.00
2023-04-16T15:34:19.696Z,1.17
2023-04-16T15:37:06.876Z,1.10
2023-04-16T15:39:54.944Z,0.83
2023-04-16T15:42:43.787Z,1.10
2023-04-16T15:45:32.296Z,1.30
2023-04-16T15:48:19.428Z,1.50
2023-04-16T15:51:07.163Z,1.47
2023-04-16T15:53:54.322Z,0.80
2023-04-16T15:56:42.339Z,0.77
2023-04-16T15:59:31.049Z,0.87
2023-04-16T16:02:19.176Z,1.00
2023-04-16T16:05:09.229Z,0.90
2023-04-16T16:07:58.239Z,1.87
2023-04-16T16:10:45.492Z,0.70
2023-04-16T16:13:33.736Z,0.63
2023-04-16T16:16:22.327Z,1.27
2023-04-16T16:19:09.718Z,0.60
2023-04-16T16:21:57.062Z,0.80
2023-04-16T16:24:44.795Z,0.80
2023-04-16T16:27:32.438Z,0.70
2023-04-16T16:30:20.206Z,0.73
2023-04-16T16:33:09.605Z,0.87
2023-04-16T16:35:57.281Z,2.40
2023-04-16T16:38:47.656Z,0.70
2023-04-16T16:41:42.215Z,0.70
2023-04-16T16:44:29.854Z,0.70
2023-04-16T16:47:17.061Z,0.70
2023-04-16T16:50:08.190Z,1.40
2023-04-16T16:52:58.544Z,1.00
2023-04-16T16:55:45.940Z,1.13
2023-04-16T16:58:34.010Z,1.07
2023-04-16T17:01:21.803Z,1.10
2023-04-16T17:04:09.033Z,0.70
2023-04-16T17:06:58.052Z,0.70
2023-04-16T17:09:46.120Z,1.07
2023-04-16T17:12:33.833Z,0.60
2023-04-16T17:15:21.965Z,0.87
2023-04-16T17:18:09.655Z,1.47
2023-04-16T17:20:56.839Z,0.70
2023-04-16T17:23:46.288Z,0.70
2023-04-16T17:26:33.536Z,1.10
2023-04-16T17:29:26.339Z,1.70
2023-04-16T17:32:13.589Z,3.27
2023-04-16T17:35:04.032Z,1.47
2023-04-16T17:37:51.490Z,1.23
2023-04-16T17:40:40.406Z,1.87
2023-04-16T17:43:28.313Z,1.33
2023-04-16T17:46:16.026Z,1.00
2023-04-16T17:49:03.381Z,1.53
2023-04-16T17:51:50.937Z,1.87
2023-04-16T17:54:38.084Z,1.30
2023-04-16T17:57:27.044Z,2.77
2023-04-16T18:00:16.517Z,1.43
2023-04-16T18:03:04.821Z,0.77
2023-04-16T18:05:52.044Z,1.40
2023-04-16T18:08:39.607Z,1.10
2023-04-16T18:11:29.411Z,0.90
2023-04-16T18:14:20.011Z,1.90
2023-04-16T18:17:07.344Z,1.73
2023-04-16T18:19:54.534Z,1.47
2023-04-16T18:22:41.657Z,1.13
2023-04-16T18:25:34.509Z,3.30
2023-04-16T18:28:22.790Z,1.40
2023-04-16T18:31:11.426Z,1.47
2023-04-16T18:33:59.241Z,1.60
2023-04-16T18:36:46.713Z,1.87
2023-04-16T18:39:34.525Z,1.37
2023-04-16T18:42:23.392Z,1.70
2023-04-16T18:45:19.638Z,1.67
2023-04-16T18:48:10.518Z,1.60
2023-04-16T18:50:58.970Z,1.30
2023-04-16T18:53:46.298Z,2.63
2023-04-16T18:56:34.431Z,2.23
2023-04-16T18:59:21.766Z,4.60
2023-04-16T19:02:09.431Z,1.63
2023-04-16T19:04:57.927Z,1.50
2023-04-16T19:07:46.322Z,1.10
2023-04-16T19:10:33.834Z,1.20
2023-04-16T19:13:21.467Z,1.20
2023-04-16T19:16:11.533Z,1.60
2023-04-16T19:18:58.912Z,1.67
2023-04-16T19:21:47.958Z,1.60
2023-04-16T19:24:35.595Z,1.90
2023-04-16T19:27:23.495Z,1.40
2023-04-16T19:30:11.191Z,1.40
2023-04-16T19:32:59.415Z,1.70
2023-04-16T19:35:46.845Z,1.97
2023-04-16T19:38:36.438Z,1.27
2023-04-16T19:41:23.694Z,1.20
2023-04-16T19:44:11.245Z,1.30
2023-04-16T19:46:58.897Z,3.13
2023-04-16T19:49:52.627Z,1.50
2023-04-16T19:52:39.864Z,1.90
2023-04-16T19:55:28.848Z,2.10
2023-04-16T19:58:16.025Z,1.43
2023-04-16T20:01:09.169Z,1.40
2023-04-16T20:03:56.319Z,1.90
2023-04-16T20:06:43.478Z,2.20
2023-04-16T20:09:30.562Z,4.30
2023-04-16T20:12:19.537Z,1.30
2023-04-16T20:15:08.183Z,1.93
2023-04-16T20:17:56.401Z,1.30
2023-04-16T20:20:43.670Z,1.70
2023-04-16T20:23:31.809Z,1.40
2023-04-16T20:26:19.537Z,1.30
2023-04-16T20:29:08.246Z,1.40
2023-04-16T20:31:56.335Z,1.20
2023-04-16T20:34:43.802Z,1.20
2023-04-16T20:37:32.355Z,2.37
2023-04-16T20:40:21.213Z,1.67
2023-04-16T20:43:10.337Z,2.17
2023-04-16T20:45:59.464Z,1.40
2023-04-16T20:48:46.627Z,1.20
2023-04-16T20:51:34.196Z,1.27
2023-04-16T20:54:21.424Z,4.37
2023-04-16T20:57:09.052Z,1.80
2023-04-16T20:59:56.487Z,1.50
2023-04-16T21:02:46.092Z,1.47
2023-04-16T21:05:33.858Z,1.53
2023-04-16T21:08:22.449Z,2.33
2023-04-16T21:11:09.587Z,1.80
2023-04-16T21:13:57.668Z,1.47
2023-04-16T21:16:44.983Z,1.23
2023-04-16T21:19:34.645Z,3.00
2023-04-16T21:22:21.854Z,1.47
2023-04-16T21:25:10.472Z,1.53
2023-04-16T21:27:58.271Z,1.47
2023-04-16T21:30:45.382Z,3.10
2023-04-16T21:33:33.502Z,1.50
2023-04-16T21:36:22.339Z,1.40
2023-04-16T21:39:11.490Z,1.20
2023-04-16T21:41:58.967Z,1.53
2023-04-16T21:44:47.039Z,1.40
2023-04-16T21:47:34.311Z,1.53
2023-04-16T21:50:22.434Z,2.40
2023-04-16T21:53:11.490Z,3.30
2023-04-16T21:55:59.571Z,1.57
2023-04-16T21:58:46.750Z,2.43
2023-04-16T22:01:35.016Z,2.47
2023-04-16T22:04:26.340Z,1.97
2023-04-16T22:07:17.223Z,1.17
2023-04-16T22:10:08.691Z,1.17
2023-04-16T22:12:56.829Z,1.47
2023-04-16T22:15:43.965Z,1.90
2023-04-16T22:18:33.293Z,2.20
2023-04-16T22:21:20.420Z,1.57
2023-04-16T22:24:08.482Z,1.07
2023-04-16T22:26:57.056Z,1.03
2023-04-16T22:29:44.677Z,1.23
2023-04-16T22:32:33.052Z,1.33
2023-04-16T22:35:21.300Z,1.30
2023-04-16T22:38:08.414Z,0.93
2023-04-16T22:40:56.541Z,1.27
2023-04-16T22:43:45.210Z,1.10
2023-04-16T22:46:33.387Z,1.97
2023-04-16T22:49:20.663Z,1.77
2023-04-16T22:52:08.756Z,2.47
2023-04-16T22:54:55.883Z,1.20
2023-04-16T22:57:43.901Z,1.50
2023-04-16T23:00:32.508Z,2.30
2023-04-16T23:03:20.643Z,1.37
2023-04-16T23:06:08.358Z,1.30
2023-04-16T23:08:56.085Z,1.57
2023-04-16T23:11:43.770Z,1.30
2023-04-16T23:14:31.464Z,1.37
2023-04-16T23:17:20.607Z,1.23
2023-04-16T23:20:10.484Z,1.20
2023-04-16T23:22:58.104Z,1.90
2023-04-16T23:25:46.018Z,1.10
2023-04-16T23:28:33.216Z,2.47
2023-04-16T23:31:20.846Z,2.03
2023-04-16T23:34:09.751Z,2.87
2023-04-16T23:36:56.989Z,1.53
2023-04-16T23:39:45.465Z,1.20
2023-04-16T23:42:32.628Z,2.57
2023-04-16T23:45:20.417Z,1.47
2023-04-16T23:48:07.846Z,1.20
2023-04-16T23:50:57.408Z,1.30
2023-04-16T23:53:44.622Z,1.17
2023-04-16T23:56:32.781Z,1.00
2023-04-16T23:59:20.084Z,1.10
